createdAt,value
2017-09-03T11:39:27.205Z,72.02
2017-09-03T12:09:13.918Z,56.61
2017-09-03T12:12:59.903Z,60.62
2017-09-03T12:21:33.173Z,49.73
2017-09-03T12:29:10.998Z,48.44
2017-09-03T12:31:37.380Z,47.96
2017-09-03T12:34:03.799Z,44.19
2017-09-03T12:36:30.218Z,41.79
2017-09-03T12:38:56.765Z,40.00
2017-09-03T12:41:23.215Z,39.82
2017-09-03T12:43:49.662Z,40.45
2017-09-03T12:46:15.970Z,40.74
2017-09-03T12:48:42.362Z,39.90
2017-09-03T12:57:19.620Z,35.71
2017-09-03T12:59:46.080Z,40.49
2017-09-03T13:02:12.577Z,41.38
2017-09-03T13:04:39.349Z,44.28
2017-09-03T13:07:05.795Z,47.22
2017-09-03T13:09:34.547Z,50.25
2017-09-03T13:12:00.961Z,47.94
2017-09-03T13:14:27.373Z,41.95
2017-09-03T13:16:53.787Z,41.76
2017-09-03T13:19:20.212Z,42.78
2017-09-03T13:21:47.116Z,41.31
2017-09-03T13:24:13.589Z,42.92
2017-09-03T13:26:40.129Z,43.20
2017-09-03T13:29:06.454Z,44.05
2017-09-03T13:31:32.768Z,45.80
2017-09-03T13:33:59.118Z,45.04
2017-09-03T13:36:25.413Z,43.16
2017-09-03T13:38:52.049Z,40.44
2017-09-03T13:41:18.404Z,37.52
2017-09-03T13:43:44.820Z,34.25
2017-09-03T13:46:11.156Z,37.59
2017-09-03T13:48:37.494Z,36.50
2017-09-03T13:51:03.824Z,35.33
2017-09-03T13:53:30.196Z,35.97
2017-09-03T13:55:56.778Z,36.05
2017-09-03T13:58:23.080Z,35.23
2017-09-03T14:00:49.494Z,36.00
2017-09-03T14:03:15.787Z,34.90
2017-09-03T14:05:42.142Z,32.48
2017-09-03T14:08:08.668Z,32.36
2017-09-03T14:10:35.031Z,32.87
2017-09-03T14:13:01.323Z,38.89
2017-09-03T14:15:28.632Z,45.17
2017-09-03T14:17:55.027Z,47.71
2017-09-03T14:20:21.570Z,49.88
2017-09-03T14:22:47.942Z,52.49
2017-09-03T14:25:14.239Z,58.56
2017-09-03T14:27:40.954Z,64.63
2017-09-03T14:30:07.331Z,62.90
2017-09-03T14:32:33.623Z,65.12
2017-09-03T14:35:00.222Z,71.90
2017-09-03T14:37:26.535Z,75.23
2017-09-03T14:39:52.918Z,71.95
2017-09-03T14:42:19.234Z,77.67
2017-09-03T14:44:45.534Z,77.00
2017-09-03T14:47:11.893Z,74.62
2017-09-03T14:49:38.236Z,68.82
2017-09-03T14:52:04.564Z,78.05
2017-09-03T14:54:38.192Z,69.74
2017-09-03T14:57:05.135Z,69.68
2017-09-03T14:59:31.686Z,67.11
2017-09-03T15:01:58.010Z,74.68
2017-09-03T15:04:24.503Z,70.26
2017-09-03T15:06:51.075Z,67.06
2017-09-03T15:09:17.587Z,72.12
2017-09-03T15:11:43.976Z,68.80
2017-09-03T15:14:10.331Z,70.38
2017-09-03T15:16:36.668Z,69.79
2017-09-03T15:19:03.197Z,70.81
2017-09-03T15:21:29.844Z,72.60
2017-09-03T15:23:56.175Z,75.31
2017-09-03T15:26:22.527Z,73.30
2017-09-03T15:28:48.843Z,76.75
2017-09-03T15:31:15.211Z,74.82
2017-09-03T15:33:41.498Z,74.99
2017-09-03T15:38:41.179Z,73.12
2017-09-03T15:41:07.590Z,72.16
2017-09-03T15:43:33.950Z,72.42
2017-09-03T15:46:00.289Z,71.60
2017-09-03T15:48:26.575Z,72.42
2017-09-03T15:50:52.939Z,73.29
2017-09-03T15:53:19.290Z,73.25
2017-09-03T15:55:45.725Z,72.71
2017-09-03T15:58:12.311Z,74.74
2017-09-03T16:00:38.705Z,74.70
2017-09-03T16:03:05.055Z,74.82
2017-09-03T16:05:31.419Z,75.25
2017-09-03T16:07:57.817Z,75.52
2017-09-03T16:10:24.366Z,77.04
2017-09-03T16:12:51.729Z,77.92
2017-09-03T16:15:18.211Z,78.15
2017-09-03T16:17:44.827Z,79.39
2017-09-03T16:20:11.269Z,79.76
2017-09-03T16:22:37.667Z,80.41
2017-09-03T16:25:04.229Z,80.62
2017-09-03T16:27:30.515Z,81.24
2017-09-03T16:29:56.963Z,81.36
2017-09-03T16:32:23.338Z,81.89
2017-09-03T16:34:49.671Z,82.14
2017-09-03T16:37:16.202Z,81.61
2017-09-03T16:39:42.519Z,81.53
2017-09-03T16:42:08.926Z,81.25
2017-09-03T16:44:36.354Z,80.27
2017-09-03T16:47:02.899Z,80.14
2017-09-03T16:49:29.408Z,82.13
2017-09-03T16:51:55.734Z,80.90
2017-09-03T16:54:22.091Z,81.59
2017-09-03T16:56:48.838Z,81.08
2017-09-03T16:59:15.179Z,82.29
2017-09-03T17:01:48.305Z,81.36
2017-09-03T17:04:21.036Z,81.11
2017-09-03T17:06:53.397Z,81.88
2017-09-03T17:09:19.939Z,82.24
2017-09-03T17:11:46.375Z,81.96
2017-09-03T17:14:18.335Z,85.53
2017-09-03T17:16:51.197Z,82.91
2017-09-03T17:19:22.665Z,82.30
2017-09-03T17:21:57.125Z,82.92
2017-09-03T17:24:24.119Z,82.93
2017-09-03T17:26:56.306Z,83.17
2017-09-03T17:29:22.906Z,83.98
2017-09-03T17:31:56.103Z,83.77
2017-09-03T17:34:22.499Z,83.57
2017-09-03T17:36:49.690Z,83.47
2017-09-03T17:39:16.051Z,83.83
2017-09-03T17:41:44.392Z,82.94
2017-09-03T17:44:11.741Z,84.05
2017-09-03T17:46:38.860Z,85.22
2017-09-03T17:49:11.241Z,85.30
2017-09-03T17:51:44.434Z,85.05
2017-09-03T17:54:16.609Z,83.53
2017-09-03T17:56:49.428Z,84.58
2017-09-03T17:59:22.616Z,84.39
2017-09-03T18:01:55.808Z,84.85
2017-09-03T18:04:28.231Z,84.92
2017-09-03T18:06:55.373Z,84.64
2017-09-03T18:09:25.786Z,84.87
2017-09-03T18:12:00.841Z,85.23
2017-09-03T18:14:29.515Z,85.05
2017-09-03T18:16:55.868Z,84.75
2017-09-03T18:19:22.250Z,84.86
2017-09-03T18:21:48.711Z,86.07
2017-09-03T18:24:16.422Z,84.63
2017-09-03T18:26:50.564Z,84.75
2017-09-03T18:29:22.254Z,85.56
2017-09-03T18:31:55.989Z,85.72
2017-09-03T18:34:26.802Z,85.59
2017-09-03T18:37:03.766Z,86.20
2017-09-03T18:39:36.270Z,86.08
2017-09-03T18:42:21.833Z,86.38
2017-09-03T18:44:48.490Z,88.67
2017-09-03T18:47:14.844Z,88.18
2017-09-03T18:49:46.352Z,87.94
2017-09-03T18:52:21.639Z,87.66
2017-09-03T18:54:53.909Z,87.61
2017-09-03T18:57:27.968Z,88.46
2017-09-03T19:00:00.618Z,87.86
2017-09-03T19:02:34.601Z,89.34
2017-09-03T19:05:07.720Z,87.41
2017-09-03T19:07:41.905Z,88.51
2017-09-03T19:10:14.450Z,88.08
2017-09-03T19:12:42.847Z,90.71
2017-09-03T19:15:14.752Z,91.04
2017-09-03T19:20:22.972Z,91.52
2017-09-03T19:22:49.872Z,91.87
2017-09-03T19:25:16.489Z,92.25
2017-09-03T19:27:42.841Z,92.60
2017-09-03T19:30:09.961Z,93.01
2017-09-03T19:32:36.430Z,92.90
2017-09-03T19:35:11.313Z,93.18
2017-09-03T19:40:17.841Z,94.05
2017-09-03T19:42:44.791Z,94.63
2017-09-03T19:45:16.026Z,93.48
2017-09-03T19:47:48.115Z,94.09
2017-09-03T19:50:19.539Z,94.10
2017-09-03T19:52:52.839Z,94.14
2017-09-03T19:55:25.478Z,94.37
2017-09-03T19:57:58.677Z,94.32
2017-09-03T20:00:30.742Z,94.42
2017-09-03T20:02:57.741Z,93.70
2017-09-03T20:05:24.202Z,94.05
2017-09-03T20:07:50.623Z,94.36
2017-09-03T20:10:17.458Z,93.69
2017-09-03T20:12:45.431Z,95.08
2017-09-03T20:15:17.376Z,95.20
2017-09-03T20:17:49.703Z,93.66
2017-09-03T20:20:21.534Z,93.70
2017-09-03T20:22:52.112Z,93.59
2017-09-03T20:25:19.297Z,93.89
2017-09-03T20:27:51.807Z,93.75
2017-09-03T20:30:25.388Z,94.71
2017-09-03T20:32:57.580Z,95.32
2017-09-03T20:35:26.345Z,95.33
2017-09-03T20:37:54.035Z,95.68
2017-09-03T20:40:24.169Z,95.74
2017-09-03T20:42:56.213Z,95.77
2017-09-03T20:45:29.017Z,95.09
2017-09-03T20:47:55.807Z,95.75
2017-09-03T20:50:22.131Z,94.75
2017-09-03T20:52:48.581Z,94.92
2017-09-03T20:55:15.184Z,95.62
2017-09-03T20:57:41.611Z,94.62
2017-09-03T21:00:07.972Z,94.66
2017-09-03T21:02:40.558Z,95.46
2017-09-03T21:05:13.359Z,95.51
2017-09-03T21:07:46.634Z,94.92
2017-09-03T21:10:19.100Z,94.88
2017-09-03T21:12:50.491Z,95.29
2017-09-03T21:15:22.516Z,95.87
2017-09-03T21:17:55.583Z,95.60
2017-09-03T21:20:29.071Z,92.58
2017-09-03T21:23:01.371Z,92.87
2017-09-03T21:25:34.190Z,92.14
2017-09-03T21:28:06.797Z,91.73
2017-09-03T21:30:38.508Z,92.34
2017-09-03T21:33:10.441Z,91.54
2017-09-03T21:35:43.190Z,93.16
2017-09-03T21:38:10.435Z,93.63
2017-09-03T21:40:36.881Z,94.11
2017-09-03T21:43:08.643Z,92.40
2017-09-03T21:45:40.801Z,92.53
2017-09-03T21:48:11.255Z,92.93
2017-09-03T21:50:43.448Z,93.54
2017-09-03T21:53:15.562Z,93.49
2017-09-03T21:55:43.102Z,93.68
2017-09-03T21:58:15.094Z,93.19
2017-09-03T22:00:47.332Z,93.07
2017-09-03T22:03:19.084Z,93.66
2017-09-03T22:05:51.747Z,95.22
2017-09-03T22:08:24.004Z,93.75
2017-09-03T22:10:57.696Z,94.02
2017-09-03T22:13:24.498Z,94.34
2017-09-03T22:15:52.007Z,93.96
2017-09-03T22:18:24.724Z,93.42
2017-09-03T22:20:51.532Z,93.64
2017-09-03T22:23:17.949Z,93.23
2017-09-03T22:25:44.324Z,94.12
2017-09-03T22:28:10.699Z,94.25
2017-09-03T22:30:37.081Z,94.56
2017-09-03T22:33:03.478Z,93.38
2017-09-03T22:35:29.774Z,92.90
2017-09-03T22:38:00.600Z,94.43
2017-09-03T22:40:27.022Z,93.53
2017-09-03T22:42:53.363Z,95.01
2017-09-03T22:45:19.811Z,95.40
2017-09-03T22:47:46.202Z,95.43
2017-09-03T22:50:12.547Z,96.22
2017-09-03T22:52:38.988Z,96.24
2017-09-03T22:55:05.435Z,94.72
2017-09-03T22:57:31.906Z,94.83
2017-09-03T22:59:58.243Z,95.42
2017-09-03T23:02:24.590Z,96.13
2017-09-03T23:04:53.012Z,95.84
2017-09-03T23:07:19.363Z,96.27
2017-09-03T23:09:45.806Z,96.26
2017-09-03T23:12:12.143Z,95.90
2017-09-03T23:14:38.511Z,94.63
2017-09-03T23:17:04.907Z,94.01
2017-09-03T23:19:31.246Z,95.57
2017-09-03T23:21:57.607Z,95.65
2017-09-03T23:24:24.039Z,95.42
2017-09-03T23:26:50.466Z,95.13
2017-09-03T23:29:16.934Z,96.16
2017-09-03T23:31:43.251Z,96.13
2017-09-03T23:34:09.738Z,96.74
2017-09-03T23:36:36.062Z,95.80
2017-09-03T23:39:02.509Z,95.62
2017-09-03T23:41:28.924Z,96.29
2017-09-03T23:43:55.342Z,96.37
2017-09-03T23:46:21.870Z,96.57
2017-09-03T23:48:48.223Z,96.97
2017-09-03T23:51:14.689Z,97.20
2017-09-03T23:53:41.014Z,97.21
2017-09-03T23:56:07.431Z,97.35
2017-09-03T23:58:33.816Z,97.46
